Aviation Digital Data Service (ADDS)

Output produced by TAFs form (0117 UTC 07 February 2016)
found at http://aviationweather.gov/adds/tafs/
 
KLND 062323Z 0700/0724 30009KT P6SM BKN150 
     FM070800 VRB06KT P6SM SCT150